DBOBS LFKJ-LIRZ
Flight info
| Callsign | DBOBS |
|---|---|
| Flight time | 0h 50m |
| Altitude | 32000 |
| Route | BTA1R BTA ELB GILIO GIKIN GITOD GITO1C |
| Aircraft | EPIC/L-SBGRY/LB1 |
Departure
| Time | 2026-04-25 09:29 |
|---|---|
| Airport | Ajaccio Napoléon Bonaparte airport (LFKJ) |
Arrival
| Time | 2026-04-25 10:19 |
|---|---|
| Airport | Perugia San Francesco d'Assisi – Umbria International Airport (LIRZ) |
| Time | Latitude | Longitude | Altitude | Speed | Heading |
|---|---|---|---|---|---|
| 2026-04-25 09:10 | 41.92179 | 8.79478 | 16 ft | 0 kts | 15° |
| 2026-04-25 09:24 | 41.92206 | 8.79490 | 17 ft | 9 kts | 21° |
| 2026-04-25 09:24 | 41.92279 | 8.79521 | 17 ft | 8 kts | 2° |
| 2026-04-25 09:25 | 41.92298 | 8.79616 | 17 ft | 19 kts | 92° |
| 2026-04-25 09:25 | 41.92289 | 8.79780 | 18 ft | 20 kts | 95° |
| 2026-04-25 09:25 | 41.92340 | 8.79878 | 18 ft | 19 kts | 19° |
| 2026-04-25 09:25 | 41.92493 | 8.79977 | 18 ft | 29 kts | 27° |
| 2026-04-25 09:26 | 41.92696 | 8.80107 | 18 ft | 34 kts | 24° |
| 2026-04-25 09:26 | 41.92817 | 8.80226 | 18 ft | 2 kts | 49° |
| 2026-04-25 09:26 | 41.92868 | 8.80288 | 18 ft | 16 kts | 40° |
| 2026-04-25 09:26 | 41.92958 | 8.80420 | 18 ft | 12 kts | 68° |
| 2026-04-25 09:27 | 41.92962 | 8.80466 | 18 ft | 0 kts | 99° |
| 2026-04-25 09:28 | 41.92959 | 8.80488 | 18 ft | 8 kts | 105° |
| 2026-04-25 09:28 | 41.92928 | 8.80590 | 18 ft | 16 kts | 178° |
| 2026-04-25 09:28 | 41.92723 | 8.80459 | 18 ft | 64 kts | 205° |
| 2026-04-25 09:28 | 41.92123 | 8.80081 | 79 ft | 116 kts | 204° |
| 2026-04-25 09:29 | 41.91265 | 8.79547 | 352 ft | 148 kts | 204° |
| 2026-04-25 09:29 | 41.90387 | 8.78577 | 1043 ft | 152 kts | 242° |
| 2026-04-25 09:29 | 41.89877 | 8.77282 | 1773 ft | 152 kts | 241° |
| 2026-04-25 09:29 | 41.89321 | 8.75936 | 2514 ft | 155 kts | 241° |
| 2026-04-25 09:30 | 41.88766 | 8.74607 | 3226 ft | 157 kts | 241° |
| 2026-04-25 09:30 | 41.88207 | 8.73279 | 3931 ft | 159 kts | 241° |
| 2026-04-25 09:30 | 41.87653 | 8.71960 | 4599 ft | 162 kts | 240° |
| 2026-04-25 09:30 | 41.87034 | 8.70490 | 5452 ft | 171 kts | 240° |
| 2026-04-25 09:31 | 41.86422 | 8.69040 | 6480 ft | 172 kts | 240° |
| 2026-04-25 09:31 | 41.86003 | 8.68047 | 7104 ft | 176 kts | 240° |
| 2026-04-25 09:31 | 41.85601 | 8.65871 | 8268 ft | 184 kts | 286° |
| 2026-04-25 09:31 | 41.86374 | 8.64494 | 9266 ft | 182 kts | 323° |
| 2026-04-25 09:32 | 41.87430 | 8.63401 | 10232 ft | 186 kts | 322° |
| 2026-04-25 09:32 | 41.88496 | 8.62282 | 11109 ft | 192 kts | 321° |
| 2026-04-25 09:32 | 41.89610 | 8.61112 | 12049 ft | 196 kts | 321° |
| 2026-04-25 09:32 | 41.90778 | 8.59965 | 12908 ft | 198 kts | 336° |
| 2026-04-25 09:33 | 41.92123 | 8.59908 | 13614 ft | 202 kts | 20° |
| 2026-04-25 09:33 | 41.93365 | 8.60752 | 14405 ft | 202 kts | 26° |
| 2026-04-25 09:33 | 41.94651 | 8.61638 | 14995 ft | 213 kts | 27° |
| 2026-04-25 09:33 | 41.95984 | 8.62561 | 15637 ft | 219 kts | 27° |
| 2026-04-25 09:34 | 41.97328 | 8.63491 | 16315 ft | 222 kts | 28° |
| 2026-04-25 09:34 | 41.98708 | 8.64446 | 17011 ft | 225 kts | 28° |
| 2026-04-25 09:34 | 42.00102 | 8.65413 | 17677 ft | 227 kts | 28° |
| 2026-04-25 09:34 | 42.01511 | 8.66392 | 18376 ft | 229 kts | 28° |
| 2026-04-25 09:35 | 42.02918 | 8.67367 | 19067 ft | 232 kts | 29° |
| 2026-04-25 09:35 | 42.04345 | 8.68360 | 19726 ft | 234 kts | 28° |
| 2026-04-25 09:35 | 42.05794 | 8.69365 | 20391 ft | 237 kts | 29° |
| 2026-04-25 09:35 | 42.07275 | 8.70394 | 21054 ft | 241 kts | 28° |
| 2026-04-25 09:36 | 42.08771 | 8.71434 | 21716 ft | 244 kts | 29° |
| 2026-04-25 09:36 | 42.10267 | 8.72475 | 22365 ft | 247 kts | 29° |
| 2026-04-25 09:36 | 42.11792 | 8.73535 | 22934 ft | 246 kts | 29° |
| 2026-04-25 09:36 | 42.13335 | 8.74612 | 23283 ft | 249 kts | 29° |
| 2026-04-25 09:37 | 42.14856 | 8.75671 | 23729 ft | 247 kts | 29° |
| 2026-04-25 09:37 | 42.16386 | 8.76737 | 24152 ft | 247 kts | 29° |
| 2026-04-25 09:37 | 42.17912 | 8.77801 | 24541 ft | 248 kts | 29° |
| 2026-04-25 09:37 | 42.19466 | 8.78885 | 24943 ft | 249 kts | 29° |
| 2026-04-25 09:38 | 42.20993 | 8.79952 | 25319 ft | 251 kts | 29° |
| 2026-04-25 09:38 | 42.22562 | 8.81049 | 25695 ft | 252 kts | 28° |
| 2026-04-25 09:38 | 42.24103 | 8.82164 | 26063 ft | 253 kts | 34° |
| 2026-04-25 09:38 | 42.25457 | 8.83647 | 26428 ft | 252 kts | 46° |
| 2026-04-25 09:39 | 42.26531 | 8.85505 | 26798 ft | 251 kts | 59° |
| 2026-04-25 09:39 | 42.27473 | 8.87491 | 27197 ft | 251 kts | 57° |
| 2026-04-25 09:39 | 42.28458 | 8.89468 | 27572 ft | 252 kts | 56° |
| 2026-04-25 09:40 | 42.30468 | 8.93471 | 28143 ft | 261 kts | 56° |
| 2026-04-25 09:40 | 42.31527 | 8.95580 | 28160 ft | 272 kts | 56° |
| 2026-04-25 09:40 | 42.32642 | 8.97801 | 28165 ft | 280 kts | 56° |
| 2026-04-25 09:40 | 42.33773 | 9.00059 | 28168 ft | 288 kts | 56° |
| 2026-04-25 09:41 | 42.34941 | 9.02388 | 28167 ft | 295 kts | 56° |
| 2026-04-25 09:41 | 42.36142 | 9.04788 | 28161 ft | 300 kts | 56° |
| 2026-04-25 09:41 | 42.38609 | 9.09716 | 28148 ft | 307 kts | 56° |
| 2026-04-25 09:42 | 42.41033 | 9.14574 | 28137 ft | 310 kts | 56° |
| 2026-04-25 09:42 | 42.43507 | 9.19535 | 28134 ft | 313 kts | 56° |
| 2026-04-25 09:43 | 42.46002 | 9.24549 | 28132 ft | 314 kts | 56° |
| 2026-04-25 09:43 | 42.48602 | 9.29782 | 28130 ft | 315 kts | 56° |
| 2026-04-25 09:44 | 42.51259 | 9.35142 | 28125 ft | 316 kts | 56° |
| 2026-04-25 09:44 | 42.53750 | 9.40174 | 28123 ft | 316 kts | 56° |
| 2026-04-25 09:45 | 42.56217 | 9.45164 | 28121 ft | 316 kts | 56° |
| 2026-04-25 09:45 | 42.57270 | 9.47816 | 28095 ft | 316 kts | 67° |
| 2026-04-25 09:45 | 42.57910 | 9.50641 | 28075 ft | 316 kts | 76° |
| 2026-04-25 09:46 | 42.58966 | 9.56687 | 28081 ft | 316 kts | 76° |
| 2026-04-25 09:46 | 42.60015 | 9.62710 | 28075 ft | 316 kts | 76° |
| 2026-04-25 09:47 | 42.61062 | 9.68761 | 28083 ft | 318 kts | 77° |
| 2026-04-25 09:47 | 42.62118 | 9.74873 | 28085 ft | 321 kts | 77° |
| 2026-04-25 09:48 | 42.63158 | 9.80914 | 28091 ft | 323 kts | 77° |
| 2026-04-25 09:48 | 42.64183 | 9.86885 | 28091 ft | 324 kts | 77° |
| 2026-04-25 09:49 | 42.65255 | 9.93154 | 28096 ft | 325 kts | 77° |
| 2026-04-25 09:49 | 42.66351 | 9.99595 | 28093 ft | 326 kts | 77° |
| 2026-04-25 09:50 | 42.67392 | 10.05725 | 28098 ft | 326 kts | 77° |
| 2026-04-25 09:50 | 42.68420 | 10.11808 | 28098 ft | 327 kts | 77° |
| 2026-04-25 09:51 | 42.69453 | 10.17931 | 28098 ft | 327 kts | 77° |
| 2026-04-25 09:51 | 42.70481 | 10.24053 | 28096 ft | 327 kts | 77° |
| 2026-04-25 09:52 | 42.71508 | 10.30184 | 28100 ft | 327 kts | 77° |
| 2026-04-25 09:52 | 42.71901 | 10.36701 | 28053 ft | 327 kts | 96° |
| 2026-04-25 09:53 | 42.70549 | 10.43136 | 27757 ft | 335 kts | 114° |
| 2026-04-25 09:53 | 42.69298 | 10.45957 | 27522 ft | 339 kts | 126° |
| 2026-04-25 09:53 | 42.67648 | 10.48388 | 27651 ft | 332 kts | 137° |
| 2026-04-25 09:54 | 42.65852 | 10.50461 | 28019 ft | 320 kts | 135° |
| 2026-04-25 09:54 | 42.64194 | 10.52685 | 28101 ft | 320 kts | 132° |
| 2026-04-25 09:54 | 42.60924 | 10.57380 | 28106 ft | 323 kts | 131° |
| 2026-04-25 09:55 | 42.57688 | 10.62096 | 28111 ft | 325 kts | 131° |
| 2026-04-25 09:55 | 42.54493 | 10.66754 | 28122 ft | 325 kts | 132° |
| 2026-04-25 09:56 | 42.51344 | 10.71337 | 28128 ft | 326 kts | 132° |
| 2026-04-25 09:56 | 42.48109 | 10.76036 | 28129 ft | 326 kts | 132° |
| 2026-04-25 09:57 | 42.44794 | 10.80844 | 28140 ft | 327 kts | 131° |
| 2026-04-25 09:57 | 42.41485 | 10.85640 | 28137 ft | 327 kts | 131° |
| 2026-04-25 09:58 | 42.38913 | 10.91053 | 28187 ft | 325 kts | 110° |
| 2026-04-25 09:58 | 42.38255 | 10.94229 | 28081 ft | 329 kts | 102° |
| 2026-04-25 09:58 | 42.37932 | 10.97586 | 27709 ft | 335 kts | 91° |
| 2026-04-25 09:59 | 42.38103 | 11.00974 | 27319 ft | 335 kts | 80° |
| 2026-04-25 09:59 | 42.38764 | 11.04264 | 26922 ft | 334 kts | 69° |
| 2026-04-25 09:59 | 42.39813 | 11.07347 | 26520 ft | 333 kts | 67° |
| 2026-04-25 09:59 | 42.40665 | 11.10382 | 26138 ft | 333 kts | 71° |
| 2026-04-25 10:00 | 42.41449 | 11.13596 | 25717 ft | 332 kts | 72° |
| 2026-04-25 10:00 | 42.42214 | 11.16891 | 24945 ft | 337 kts | 73° |
| 2026-04-25 10:00 | 42.42937 | 11.20050 | 24310 ft | 333 kts | 73° |
| 2026-04-25 10:00 | 42.43622 | 11.23061 | 23808 ft | 324 kts | 73° |
| 2026-04-25 10:01 | 42.44288 | 11.26003 | 23478 ft | 312 kts | 73° |
| 2026-04-25 10:01 | 42.44938 | 11.28874 | 23129 ft | 304 kts | 73° |
| 2026-04-25 10:01 | 42.45578 | 11.31700 | 22806 ft | 301 kts | 73° |
| 2026-04-25 10:01 | 42.46184 | 11.34386 | 22489 ft | 298 kts | 73° |
| 2026-04-25 10:02 | 42.46802 | 11.37121 | 22159 ft | 297 kts | 73° |
| 2026-04-25 10:02 | 42.47413 | 11.39835 | 21841 ft | 299 kts | 73° |
| 2026-04-25 10:02 | 42.48035 | 11.42604 | 21508 ft | 302 kts | 73° |
| 2026-04-25 10:02 | 42.48659 | 11.45374 | 21163 ft | 304 kts | 73° |
| 2026-04-25 10:03 | 42.49277 | 11.48131 | 20836 ft | 305 kts | 73° |
| 2026-04-25 10:03 | 42.49911 | 11.50962 | 20494 ft | 305 kts | 72° |
| 2026-04-25 10:03 | 42.50523 | 11.53692 | 20168 ft | 305 kts | 72° |
| 2026-04-25 10:03 | 42.51135 | 11.56432 | 19824 ft | 305 kts | 73° |
| 2026-04-25 10:04 | 42.51752 | 11.59196 | 19488 ft | 305 kts | 73° |
| 2026-04-25 10:04 | 42.52362 | 11.61933 | 19157 ft | 304 kts | 72° |
| 2026-04-25 10:04 | 42.52973 | 11.64679 | 18822 ft | 304 kts | 72° |
| 2026-04-25 10:04 | 42.53577 | 11.67392 | 18489 ft | 303 kts | 73° |
| 2026-04-25 10:05 | 42.54183 | 11.70120 | 18155 ft | 303 kts | 73° |
| 2026-04-25 10:05 | 42.54771 | 11.72771 | 17839 ft | 302 kts | 73° |
| 2026-04-25 10:05 | 42.55353 | 11.75397 | 17522 ft | 301 kts | 73° |
| 2026-04-25 10:05 | 42.55925 | 11.77983 | 17212 ft | 301 kts | 73° |
| 2026-04-25 10:06 | 42.56466 | 11.80429 | 16919 ft | 300 kts | 73° |
| 2026-04-25 10:06 | 42.57070 | 11.83169 | 16584 ft | 299 kts | 73° |
| 2026-04-25 10:06 | 42.57682 | 11.85945 | 16248 ft | 297 kts | 73° |
| 2026-04-25 10:06 | 42.58273 | 11.88629 | 15921 ft | 296 kts | 73° |
| 2026-04-25 10:07 | 42.58858 | 11.91289 | 15595 ft | 295 kts | 73° |
| 2026-04-25 10:07 | 42.59448 | 11.93973 | 15268 ft | 293 kts | 73° |
| 2026-04-25 10:07 | 42.60030 | 11.96627 | 15015 ft | 290 kts | 73° |
| 2026-04-25 10:07 | 42.60598 | 11.99218 | 14659 ft | 286 kts | 73° |
| 2026-04-25 10:08 | 42.61158 | 12.01777 | 14293 ft | 280 kts | 73° |
| 2026-04-25 10:08 | 42.61715 | 12.04261 | 14102 ft | 269 kts | 68° |
| 2026-04-25 10:08 | 42.62803 | 12.06235 | 13844 ft | 265 kts | 47° |
| 2026-04-25 10:08 | 42.64077 | 12.08073 | 13367 ft | 268 kts | 46° |
| 2026-04-25 10:09 | 42.65372 | 12.09935 | 12886 ft | 271 kts | 46° |
| 2026-04-25 10:09 | 42.66666 | 12.11679 | 12827 ft | 256 kts | 44° |
| 2026-04-25 10:09 | 42.67936 | 12.13333 | 12641 ft | 250 kts | 43° |
| 2026-04-25 10:09 | 42.69178 | 12.14938 | 12423 ft | 241 kts | 43° |
| 2026-04-25 10:10 | 42.70383 | 12.16488 | 12222 ft | 239 kts | 43° |
| 2026-04-25 10:10 | 42.71599 | 12.18048 | 12022 ft | 238 kts | 42° |
| 2026-04-25 10:10 | 42.72803 | 12.19592 | 11706 ft | 242 kts | 42° |
| 2026-04-25 10:10 | 42.74047 | 12.21189 | 11341 ft | 246 kts | 42° |
| 2026-04-25 10:11 | 42.75286 | 12.22781 | 10991 ft | 249 kts | 42° |
| 2026-04-25 10:11 | 42.76558 | 12.24416 | 10614 ft | 251 kts | 42° |
| 2026-04-25 10:11 | 42.77833 | 12.26056 | 10242 ft | 252 kts | 42° |
| 2026-04-25 10:11 | 42.79094 | 12.27681 | 9871 ft | 253 kts | 42° |
| 2026-04-25 10:12 | 42.80371 | 12.29325 | 9507 ft | 253 kts | 41° |
| 2026-04-25 10:12 | 42.81651 | 12.30973 | 9140 ft | 253 kts | 41° |
| 2026-04-25 10:12 | 42.84213 | 12.34274 | 8431 ft | 252 kts | 42° |
| 2026-04-25 10:13 | 42.85490 | 12.35923 | 8060 ft | 252 kts | 41° |
| 2026-04-25 10:13 | 42.86761 | 12.37564 | 7683 ft | 246 kts | 42° |
| 2026-04-25 10:13 | 42.87979 | 12.39139 | 7226 ft | 242 kts | 41° |
| 2026-04-25 10:13 | 42.89202 | 12.40719 | 6721 ft | 238 kts | 42° |
| 2026-04-25 10:14 | 42.90386 | 12.42249 | 6220 ft | 233 kts | 42° |
| 2026-04-25 10:14 | 42.91568 | 12.43781 | 5662 ft | 233 kts | 42° |
| 2026-04-25 10:14 | 42.92743 | 12.45262 | 5102 ft | 231 kts | 33° |
| 2026-04-25 10:14 | 42.94248 | 12.45989 | 4557 ft | 228 kts | 13° |
| 2026-04-25 10:15 | 42.95787 | 12.46529 | 3992 ft | 227 kts | 12° |
| 2026-04-25 10:15 | 42.97317 | 12.47059 | 3552 ft | 221 kts | 12° |
| 2026-04-25 10:15 | 42.98740 | 12.47553 | 3395 ft | 204 kts | 12° |
| 2026-04-25 10:15 | 43.00005 | 12.47992 | 3281 ft | 157 kts | 12° |
| 2026-04-25 10:16 | 43.00951 | 12.48320 | 3071 ft | 126 kts | 12° |
| 2026-04-25 10:16 | 43.01776 | 12.48604 | 2661 ft | 123 kts | 12° |
| 2026-04-25 10:16 | 43.02607 | 12.48892 | 2195 ft | 123 kts | 12° |
| 2026-04-25 10:16 | 43.03387 | 12.49164 | 1926 ft | 108 kts | 12° |
| 2026-04-25 10:17 | 43.04095 | 12.49412 | 1769 ft | 105 kts | 10° |
| 2026-04-25 10:17 | 43.04772 | 12.49644 | 1608 ft | 98 kts | 11° |
| 2026-04-25 10:17 | 43.05444 | 12.49877 | 1470 ft | 97 kts | 11° |
| 2026-04-25 10:17 | 43.06108 | 12.50107 | 1330 ft | 102 kts | 9° |
| 2026-04-25 10:18 | 43.06822 | 12.50347 | 1213 ft | 108 kts | 11° |
| 2026-04-25 10:18 | 43.07544 | 12.50606 | 1019 ft | 105 kts | 11° |
| 2026-04-25 10:18 | 43.08235 | 12.50849 | 844 ft | 102 kts | 12° |
| 2026-04-25 10:18 | 43.08916 | 12.51089 | 700 ft | 98 kts | 13° |
| 2026-04-25 10:19 | 43.09507 | 12.51296 | 689 ft | 63 kts | 11° |
| 2026-04-25 10:19 | 43.09829 | 12.51399 | 694 ft | 44 kts | 14° |
| 2026-04-25 10:19 | 43.10077 | 12.51487 | 697 ft | 31 kts | 16° |
| 2026-04-25 10:19 | 43.10253 | 12.51549 | 700 ft | 30 kts | 14° |
| 2026-04-25 10:20 | 43.10450 | 12.51619 | 703 ft | 30 kts | 18° |
| 2026-04-25 10:20 | 43.10650 | 12.51694 | 705 ft | 26 kts | 17° |
| 2026-04-25 10:20 | 43.10765 | 12.51649 | 706 ft | 18 kts | 291° |
| 2026-04-25 10:20 | 43.10744 | 12.51496 | 705 ft | 22 kts | 201° |
| 2026-04-25 10:21 | 43.10576 | 12.51436 | 703 ft | 27 kts | 193° |
| 2026-04-25 10:21 | 43.10384 | 12.51369 | 701 ft | 29 kts | 200° |
| 2026-04-25 10:21 | 43.10178 | 12.51298 | 697 ft | 30 kts | 193° |
| 2026-04-25 10:21 | 43.09990 | 12.51228 | 694 ft | 28 kts | 194° |
| 2026-04-25 10:22 | 43.09870 | 12.51186 | 692 ft | 4 kts | 190° |
| 2026-04-25 10:22 | 43.09830 | 12.51181 | 692 ft | 12 kts | 186° |
| 2026-04-25 10:22 | 43.09724 | 12.51012 | 690 ft | 23 kts | 245° |
| 2026-04-25 10:22 | 43.09652 | 12.50793 | 688 ft | 27 kts | 245° |
| 2026-04-25 10:23 | 43.09590 | 12.50610 | 686 ft | 10 kts | 245° |
| 2026-04-25 10:23 | 43.09549 | 12.50489 | 686 ft | 12 kts | 255° |
| 2026-04-25 10:23 | 43.09596 | 12.50419 | 686 ft | 13 kts | 339° |
| 2026-04-25 10:23 | 43.09634 | 12.50347 | 686 ft | 9 kts | 264° |
| 2026-04-25 10:24 | 43.09633 | 12.50331 | 686 ft | 0 kts | 265° |